sensor_id;sensor_type;location;lat;lon;timestamp;temperature;humidity
19483;DHT22;9882;51.166;6.992;2023-07-30T00:01:27;20.70;99.90
19483;DHT22;9882;51.166;6.992;2023-07-30T00:03:57;20.50;99.90
19483;DHT22;9882;51.166;6.992;2023-07-30T00:06:26;20.40;99.90
19483;DHT22;9882;51.166;6.992;2023-07-30T00:08:55;20.60;99.90
19483;DHT22;9882;51.166;6.992;2023-07-30T00:11:24;20.50;99.90
19483;DHT22;9882;51.166;6.992;2023-07-30T00:13:53;20.60;99.90
19483;DHT22;9882;51.166;6.992;2023-07-30T00:16:22;20.70;99.90
19483;DHT22;9882;51.166;6.992;2023-07-30T00:18:50;20.70;99.90
19483;DHT22;9882;51.166;6.992;2023-07-30T00:21:21;20.70;99.90
19483;DHT22;9882;51.166;6.992;2023-07-30T00:23:50;20.70;99.90
19483;DHT22;9882;51.166;6.992;2023-07-30T00:26:19;20.60;99.90
19483;DHT22;9882;51.166;6.992;2023-07-30T00:28:48;20.60;99.90
19483;DHT22;9882;51.166;6.992;2023-07-30T00:31:17;20.60;99.90
19483;DHT22;9882;51.166;6.992;2023-07-30T00:33:46;20.60;99.90
19483;DHT22;9882;51.166;6.992;2023-07-30T00:36:15;20.50;99.90
19483;DHT22;9882;51.166;6.992;2023-07-30T00:38:45;20.60;99.90
19483;DHT22;9882;51.166;6.992;2023-07-30T00:41:14;20.50;99.90
19483;DHT22;9882;51.166;6.992;2023-07-30T00:43:43;20.40;99.90
19483;DHT22;9882;51.166;6.992;2023-07-30T00:46:13;20.40;99.90
19483;DHT22;9882;51.166;6.992;2023-07-30T00:48:42;20.40;99.90
19483;DHT22;9882;51.166;6.992;2023-07-30T00:51:13;20.40;99.90
19483;DHT22;9882;51.166;6.992;2023-07-30T00:53:45;20.40;99.90
19483;DHT22;9882;51.166;6.992;2023-07-30T00:56:14;20.40;99.90
19483;DHT22;9882;51.166;6.992;2023-07-30T00:58:44;20.20;99.90
19483;DHT22;9882;51.166;6.992;2023-07-30T01:01:16;20.20;99.90
19483;DHT22;9882;51.166;6.992;2023-07-30T01:03:45;20.10;99.90
19483;DHT22;9882;51.166;6.992;2023-07-30T01:06:14;20.00;99.90
19483;DHT22;9882;51.166;6.992;2023-07-30T01:08:44;19.90;99.90
19483;DHT22;9882;51.166;6.992;2023-07-30T01:11:14;20.00;99.90
19483;DHT22;9882;51.166;6.992;2023-07-30T01:13:45;20.00;99.90
19483;DHT22;9882;51.166;6.992;2023-07-30T01:16:15;20.00;99.90
19483;DHT22;9882;51.166;6.992;2023-07-30T01:18:44;19.50;99.90
19483;DHT22;9882;51.166;6.992;2023-07-30T01:21:16;19.80;99.90
19483;DHT22;9882;51.166;6.992;2023-07-30T01:23:45;19.90;99.90
19483;DHT22;9882;51.166;6.992;2023-07-30T01:26:20;19.90;99.90
19483;DHT22;9882;51.166;6.992;2023-07-30T01:28:54;20.00;99.90
19483;DHT22;9882;51.166;6.992;2023-07-30T01:31:26;20.00;99.90
19483;DHT22;9882;51.166;6.992;2023-07-30T01:33:56;20.00;99.90
19483;DHT22;9882;51.166;6.992;2023-07-30T01:36:27;20.00;99.90
19483;DHT22;9882;51.166;6.992;2023-07-30T01:38:57;19.90;99.90
19483;DHT22;9882;51.166;6.992;2023-07-30T01:41:28;19.70;99.90
19483;DHT22;9882;51.166;6.992;2023-07-30T01:43:57;19.70;99.90
19483;DHT22;9882;51.166;6.992;2023-07-30T01:46:26;19.50;99.90
19483;DHT22;9882;51.166;6.992;2023-07-30T01:48:54;19.60;99.90
19483;DHT22;9882;51.166;6.992;2023-07-30T01:51:23;19.60;99.90
19483;DHT22;9882;51.166;6.992;2023-07-30T01:53:54;19.50;99.90
19483;DHT22;9882;51.166;6.992;2023-07-30T01:56:23;19.70;99.90
19483;DHT22;9882;51.166;6.992;2023-07-30T01:58:52;19.60;99.90
19483;DHT22;9882;51.166;6.992;2023-07-30T02:01:21;19.70;99.90
19483;DHT22;9882;51.166;6.992;2023-07-30T02:03:50;19.70;99.90
19483;DHT22;9882;51.166;6.992;2023-07-30T02:06:19;19.70;99.90
19483;DHT22;9882;51.166;6.992;2023-07-30T02:08:49;19.80;99.90
19483;DHT22;9882;51.166;6.992;2023-07-30T02:11:19;19.70;99.90
19483;DHT22;9882;51.166;6.992;2023-07-30T02:13:48;19.70;99.90
19483;DHT22;9882;51.166;6.992;2023-07-30T02:16:17;19.70;99.90
19483;DHT22;9882;51.166;6.992;2023-07-30T02:18:46;19.70;99.90
19483;DHT22;9882;51.166;6.992;2023-07-30T02:21:15;19.70;99.90
19483;DHT22;9882;51.166;6.992;2023-07-30T02:23:44;19.50;99.90
19483;DHT22;9882;51.166;6.992;2023-07-30T02:26:12;19.70;99.90
19483;DHT22;9882;51.166;6.992;2023-07-30T02:28:43;19.60;99.90
19483;DHT22;9882;51.166;6.992;2023-07-30T02:31:12;19.20;99.90
19483;DHT22;9882;51.166;6.992;2023-07-30T02:33:41;19.20;99.90
19483;DHT22;9882;51.166;6.992;2023-07-30T02:36:10;19.30;99.90
19483;DHT22;9882;51.166;6.992;2023-07-30T02:38:39;19.40;99.90
19483;DHT22;9882;51.166;6.992;2023-07-30T02:41:08;19.40;99.90
19483;DHT22;9882;51.166;6.992;2023-07-30T02:43:37;19.50;99.90
19483;DHT22;9882;51.166;6.992;2023-07-30T02:46:07;19.30;99.90
19483;DHT22;9882;51.166;6.992;2023-07-30T02:48:36;19.00;99.90
19483;DHT22;9882;51.166;6.992;2023-07-30T02:51:05;19.20;99.90
19483;DHT22;9882;51.166;6.992;2023-07-30T02:53:34;19.40;99.90
19483;DHT22;9882;51.166;6.992;2023-07-30T02:56:03;19.40;99.90
19483;DHT22;9882;51.166;6.992;2023-07-30T02:58:32;19.00;99.90
19483;DHT22;9882;51.166;6.992;2023-07-30T03:01:07;19.00;99.90
19483;DHT22;9882;51.166;6.992;2023-07-30T03:03:37;18.80;99.90
19483;DHT22;9882;51.166;6.992;2023-07-30T03:06:05;18.70;99.90
19483;DHT22;9882;51.166;6.992;2023-07-30T03:08:34;19.00;99.90
19483;DHT22;9882;51.166;6.992;2023-07-30T03:11:04;18.90;99.90
19483;DHT22;9882;51.166;6.992;2023-07-30T03:13:33;18.80;99.90
19483;DHT22;9882;51.166;6.992;2023-07-30T03:16:02;18.70;99.90
19483;DHT22;9882;51.166;6.992;2023-07-30T03:18:32;19.00;99.90
19483;DHT22;9882;51.166;6.992;2023-07-30T03:21:01;18.70;99.90
19483;DHT22;9882;51.166;6.992;2023-07-30T03:23:30;18.80;99.90
19483;DHT22;9882;51.166;6.992;2023-07-30T03:25:59;18.30;99.90
19483;DHT22;9882;51.166;6.992;2023-07-30T03:28:28;18.40;99.90
19483;DHT22;9882;51.166;6.992;2023-07-30T03:30:57;18.40;99.90
19483;DHT22;9882;51.166;6.992;2023-07-30T03:33:26;18.40;99.90
19483;DHT22;9882;51.166;6.992;2023-07-30T03:35:56;18.20;99.90
19483;DHT22;9882;51.166;6.992;2023-07-30T03:38:25;18.00;99.90
19483;DHT22;9882;51.166;6.992;2023-07-30T03:40:54;17.70;99.90
19483;DHT22;9882;51.166;6.992;2023-07-30T03:43:23;17.80;99.90
19483;DHT22;9882;51.166;6.992;2023-07-30T03:45:52;17.70;99.90
19483;DHT22;9882;51.166;6.992;2023-07-30T03:48:20;18.10;99.90
19483;DHT22;9882;51.166;6.992;2023-07-30T03:50:49;17.50;99.90
19483;DHT22;9882;51.166;6.992;2023-07-30T03:53:20;17.10;99.90
19483;DHT22;9882;51.166;6.992;2023-07-30T03:55:49;17.00;99.90
19483;DHT22;9882;51.166;6.992;2023-07-30T03:58:18;17.00;99.90
19483;DHT22;9882;51.166;6.992;2023-07-30T04:00:47;17.40;99.90
19483;DHT22;9882;51.166;6.992;2023-07-30T04:03:15;17.70;99.90
19483;DHT22;9882;51.166;6.992;2023-07-30T04:05:44;18.10;99.90
19483;DHT22;9882;51.166;6.992;2023-07-30T04:08:13;18.00;99.90
19483;DHT22;9882;51.166;6.992;2023-07-30T04:10:43;17.80;99.90
19483;DHT22;9882;51.166;6.992;2023-07-30T04:13:13;18.00;99.90
19483;DHT22;9882;51.166;6.992;2023-07-30T04:15:42;18.20;99.90
19483;DHT22;9882;51.166;6.992;2023-07-30T04:18:11;18.10;99.90
19483;DHT22;9882;51.166;6.992;2023-07-30T04:20:40;18.30;99.90
19483;DHT22;9882;51.166;6.992;2023-07-30T04:23:09;18.30;99.90
19483;DHT22;9882;51.166;6.992;2023-07-30T04:25:38;18.50;99.90
19483;DHT22;9882;51.166;6.992;2023-07-30T04:28:08;18.50;99.90
19483;DHT22;9882;51.166;6.992;2023-07-30T04:30:37;18.70;99.90
19483;DHT22;9882;51.166;6.992;2023-07-30T04:37:20;17.90;99.90
19483;DHT22;9882;51.166;6.992;2023-07-30T04:39:49;18.30;99.90
19483;DHT22;9882;51.166;6.992;2023-07-30T04:42:18;17.50;99.90
19483;DHT22;9882;51.166;6.992;2023-07-30T04:44:49;17.90;99.90
19483;DHT22;9882;51.166;6.992;2023-07-30T04:47:18;17.50;99.90
19483;DHT22;9882;51.166;6.992;2023-07-30T04:49:48;17.30;99.90
19483;DHT22;9882;51.166;6.992;2023-07-30T04:52:19;17.10;99.90
19483;DHT22;9882;51.166;6.992;2023-07-30T04:54:47;17.30;99.90
19483;DHT22;9882;51.166;6.992;2023-07-30T04:57:16;17.30;99.90
19483;DHT22;9882;51.166;6.992;2023-07-30T04:59:45;17.50;99.90
19483;DHT22;9882;51.166;6.992;2023-07-30T05:02:15;17.70;99.90
19483;DHT22;9882;51.166;6.992;2023-07-30T05:08:23;17.60;99.90
19483;DHT22;9882;51.166;6.992;2023-07-30T05:10:52;17.40;99.90
19483;DHT22;9882;51.166;6.992;2023-07-30T05:13:21;17.70;99.90
19483;DHT22;9882;51.166;6.992;2023-07-30T05:15:50;18.00;99.90
19483;DHT22;9882;51.166;6.992;2023-07-30T05:18:21;17.70;99.90
19483;DHT22;9882;51.166;6.992;2023-07-30T05:20:50;18.00;99.90
19483;DHT22;9882;51.166;6.992;2023-07-30T05:23:20;17.60;99.90
19483;DHT22;9882;51.166;6.992;2023-07-30T05:25:49;17.60;99.90
19483;DHT22;9882;51.166;6.992;2023-07-30T05:28:18;18.00;99.90
19483;DHT22;9882;51.166;6.992;2023-07-30T05:30:47;17.90;99.90
19483;DHT22;9882;51.166;6.992;2023-07-30T05:33:16;17.80;99.90
19483;DHT22;9882;51.166;6.992;2023-07-30T05:35:46;17.50;99.90
19483;DHT22;9882;51.166;6.992;2023-07-30T05:38:15;17.70;99.90
19483;DHT22;9882;51.166;6.992;2023-07-30T05:40:45;17.70;99.90
19483;DHT22;9882;51.166;6.992;2023-07-30T05:43:13;17.60;99.90
19483;DHT22;9882;51.166;6.992;2023-07-30T05:45:43;17.90;99.90
19483;DHT22;9882;51.166;6.992;2023-07-30T05:48:12;17.50;99.90
19483;DHT22;9882;51.166;6.992;2023-07-30T05:50:41;16.60;99.90
19483;DHT22;9882;51.166;6.992;2023-07-30T05:53:11;17.10;99.90
19483;DHT22;9882;51.166;6.992;2023-07-30T05:55:40;17.20;99.90
19483;DHT22;9882;51.166;6.992;2023-07-30T05:58:09;17.60;99.90
19483;DHT22;9882;51.166;6.992;2023-07-30T06:00:38;17.70;99.90
19483;DHT22;9882;51.166;6.992;2023-07-30T06:03:07;17.60;99.90
19483;DHT22;9882;51.166;6.992;2023-07-30T06:05:39;17.10;99.90
19483;DHT22;9882;51.166;6.992;2023-07-30T06:08:10;17.60;99.90
19483;DHT22;9882;51.166;6.992;2023-07-30T06:10:39;17.70;99.90
19483;DHT22;9882;51.166;6.992;2023-07-30T06:13:09;17.90;99.90
19483;DHT22;9882;51.166;6.992;2023-07-30T06:15:37;18.00;99.90
19483;DHT22;9882;51.166;6.992;2023-07-30T06:18:06;17.50;99.90
19483;DHT22;9882;51.166;6.992;2023-07-30T06:20:35;17.60;99.90
19483;DHT22;9882;51.166;6.992;2023-07-30T06:23:04;17.60;99.90
19483;DHT22;9882;51.166;6.992;2023-07-30T06:25:35;17.60;99.90
19483;DHT22;9882;51.166;6.992;2023-07-30T06:28:04;17.20;99.90
19483;DHT22;9882;51.166;6.992;2023-07-30T06:30:34;17.50;99.90
19483;DHT22;9882;51.166;6.992;2023-07-30T06:33:04;17.30;99.90
19483;DHT22;9882;51.166;6.992;2023-07-30T06:35:33;17.50;99.90
19483;DHT22;9882;51.166;6.992;2023-07-30T06:38:02;17.20;99.90
19483;DHT22;9882;51.166;6.992;2023-07-30T06:40:31;17.20;99.90
19483;DHT22;9882;51.166;6.992;2023-07-30T06:43:01;16.80;99.90
19483;DHT22;9882;51.166;6.992;2023-07-30T06:45:30;16.80;99.90
19483;DHT22;9882;51.166;6.992;2023-07-30T06:47:59;16.80;99.90
19483;DHT22;9882;51.166;6.992;2023-07-30T06:50:28;17.00;99.90
19483;DHT22;9882;51.166;6.992;2023-07-30T06:52:58;16.40;99.90
19483;DHT22;9882;51.166;6.992;2023-07-30T06:55:27;16.50;99.90
19483;DHT22;9882;51.166;6.992;2023-07-30T06:57:56;16.90;99.90
19483;DHT22;9882;51.166;6.992;2023-07-30T07:00:26;16.50;99.90
19483;DHT22;9882;51.166;6.992;2023-07-30T07:02:55;16.50;99.90
19483;DHT22;9882;51.166;6.992;2023-07-30T07:05:24;16.60;99.90
19483;DHT22;9882;51.166;6.992;2023-07-30T07:07:54;16.60;99.90
19483;DHT22;9882;51.166;6.992;2023-07-30T07:10:23;16.60;99.90
19483;DHT22;9882;51.166;6.992;2023-07-30T07:12:52;16.70;99.90
19483;DHT22;9882;51.166;6.992;2023-07-30T07:15:21;16.60;99.90
19483;DHT22;9882;51.166;6.992;2023-07-30T07:17:51;16.60;99.90
19483;DHT22;9882;51.166;6.992;2023-07-30T07:20:20;16.60;99.90
19483;DHT22;9882;51.166;6.992;2023-07-30T07:22:49;16.80;99.90
19483;DHT22;9882;51.166;6.992;2023-07-30T07:25:18;16.60;99.90
19483;DHT22;9882;51.166;6.992;2023-07-30T07:27:48;16.70;99.90
19483;DHT22;9882;51.166;6.992;2023-07-30T07:30:17;16.80;99.90
19483;DHT22;9882;51.166;6.992;2023-07-30T07:32:46;16.60;99.90
19483;DHT22;9882;51.166;6.992;2023-07-30T07:35:20;16.80;99.90
19483;DHT22;9882;51.166;6.992;2023-07-30T07:37:49;16.80;99.90
19483;DHT22;9882;51.166;6.992;2023-07-30T07:40:19;16.50;99.90
19483;DHT22;9882;51.166;6.992;2023-07-30T07:42:48;16.60;99.90
19483;DHT22;9882;51.166;6.992;2023-07-30T07:45:17;16.60;99.90
19483;DHT22;9882;51.166;6.992;2023-07-30T07:47:46;16.50;99.90
19483;DHT22;9882;51.166;6.992;2023-07-30T07:50:15;16.70;99.90
19483;DHT22;9882;51.166;6.992;2023-07-30T07:52:48;16.80;99.90
19483;DHT22;9882;51.166;6.992;2023-07-30T07:55:17;16.80;99.90
19483;DHT22;9882;51.166;6.992;2023-07-30T07:57:46;16.70;99.90
19483;DHT22;9882;51.166;6.992;2023-07-30T08:00:15;16.80;99.90
19483;DHT22;9882;51.166;6.992;2023-07-30T08:02:44;17.00;99.90
19483;DHT22;9882;51.166;6.992;2023-07-30T08:05:14;16.90;99.90
19483;DHT22;9882;51.166;6.992;2023-07-30T08:07:46;17.10;99.90
19483;DHT22;9882;51.166;6.992;2023-07-30T08:10:15;17.20;99.90
19483;DHT22;9882;51.166;6.992;2023-07-30T08:12:44;17.10;99.90
19483;DHT22;9882;51.166;6.992;2023-07-30T08:15:16;17.00;99.90
19483;DHT22;9882;51.166;6.992;2023-07-30T08:17:46;17.20;99.90
19483;DHT22;9882;51.166;6.992;2023-07-30T08:20:15;17.10;99.90
19483;DHT22;9882;51.166;6.992;2023-07-30T08:22:46;17.10;99.90
19483;DHT22;9882;51.166;6.992;2023-07-30T08:25:15;17.10;99.90
19483;DHT22;9882;51.166;6.992;2023-07-30T08:27:44;17.30;99.90
19483;DHT22;9882;51.166;6.992;2023-07-30T08:30:13;17.10;99.90
19483;DHT22;9882;51.166;6.992;2023-07-30T08:32:42;17.20;99.90
19483;DHT22;9882;51.166;6.992;2023-07-30T08:35:11;17.20;99.90
19483;DHT22;9882;51.166;6.992;2023-07-30T08:37:40;17.20;99.90
19483;DHT22;9882;51.166;6.992;2023-07-30T08:40:11;17.10;99.90
19483;DHT22;9882;51.166;6.992;2023-07-30T08:42:41;17.20;99.90
19483;DHT22;9882;51.166;6.992;2023-07-30T08:45:10;17.20;99.90
19483;DHT22;9882;51.166;6.992;2023-07-30T08:47:40;17.20;99.90
19483;DHT22;9882;51.166;6.992;2023-07-30T08:50:10;17.20;99.90
19483;DHT22;9882;51.166;6.992;2023-07-30T08:52:39;17.40;99.90
19483;DHT22;9882;51.166;6.992;2023-07-30T08:55:09;17.40;99.90
19483;DHT22;9882;51.166;6.992;2023-07-30T08:57:41;17.60;99.90
19483;DHT22;9882;51.166;6.992;2023-07-30T09:00:15;17.80;99.90
19483;DHT22;9882;51.166;6.992;2023-07-30T09:02:48;17.90;99.90
19483;DHT22;9882;51.166;6.992;2023-07-30T09:05:18;18.10;99.90
19483;DHT22;9882;51.166;6.992;2023-07-30T09:07:48;17.80;99.90
19483;DHT22;9882;51.166;6.992;2023-07-30T09:10:17;17.80;99.90
19483;DHT22;9882;51.166;6.992;2023-07-30T09:12:52;17.90;99.90
19483;DHT22;9882;51.166;6.992;2023-07-30T09:15:31;18.10;99.90
19483;DHT22;9882;51.166;6.992;2023-07-30T09:18:01;17.80;99.90
19483;DHT22;9882;51.166;6.992;2023-07-30T09:20:37;18.00;99.90
19483;DHT22;9882;51.166;6.992;2023-07-30T09:23:10;17.90;99.90
19483;DHT22;9882;51.166;6.992;2023-07-30T09:25:42;17.90;99.90
19483;DHT22;9882;51.166;6.992;2023-07-30T09:28:14;18.00;99.90
19483;DHT22;9882;51.166;6.992;2023-07-30T09:30:49;18.20;99.90
19483;DHT22;9882;51.166;6.992;2023-07-30T09:33:19;18.00;99.90
19483;DHT22;9882;51.166;6.992;2023-07-30T09:35:49;18.00;99.90
19483;DHT22;9882;51.166;6.992;2023-07-30T09:38:21;18.20;99.90
19483;DHT22;9882;51.166;6.992;2023-07-30T09:40:52;18.20;99.90
19483;DHT22;9882;51.166;6.992;2023-07-30T09:43:29;18.30;99.90
19483;DHT22;9882;51.166;6.992;2023-07-30T09:46:03;18.40;99.90
19483;DHT22;9882;51.166;6.992;2023-07-30T09:48:33;18.50;99.90
19483;DHT22;9882;51.166;6.992;2023-07-30T09:51:03;18.60;99.90
19483;DHT22;9882;51.166;6.992;2023-07-30T09:53:33;18.70;99.90
19483;DHT22;9882;51.166;6.992;2023-07-30T09:56:04;18.60;99.90
19483;DHT22;9882;51.166;6.992;2023-07-30T10:01:08;18.60;99.90
19483;DHT22;9882;51.166;6.992;2023-07-30T10:03:36;18.70;99.90
19483;DHT22;9882;51.166;6.992;2023-07-30T10:06:05;18.70;99.90
19483;DHT22;9882;51.166;6.992;2023-07-30T10:08:38;18.60;99.90
19483;DHT22;9882;51.166;6.992;2023-07-30T10:11:09;18.70;99.90
19483;DHT22;9882;51.166;6.992;2023-07-30T10:13:40;19.00;99.90
19483;DHT22;9882;51.166;6.992;2023-07-30T10:16:12;19.20;99.90
19483;DHT22;9882;51.166;6.992;2023-07-30T10:18:43;19.40;99.90
19483;DHT22;9882;51.166;6.992;2023-07-30T10:21:22;19.50;99.90
19483;DHT22;9882;51.166;6.992;2023-07-30T10:23:58;19.60;99.90
19483;DHT22;9882;51.166;6.992;2023-07-30T10:26:30;19.30;99.90
19483;DHT22;9882;51.166;6.992;2023-07-30T10:29:15;19.40;99.90
19483;DHT22;9882;51.166;6.992;2023-07-30T10:31:57;19.70;99.90
19483;DHT22;9882;51.166;6.992;2023-07-30T10:34:45;19.70;99.90
19483;DHT22;9882;51.166;6.992;2023-07-30T10:37:18;19.70;99.90
19483;DHT22;9882;51.166;6.992;2023-07-30T10:39:48;19.70;99.90
19483;DHT22;9882;51.166;6.992;2023-07-30T10:42:20;19.80;99.90
19483;DHT22;9882;51.166;6.992;2023-07-30T10:44:49;19.50;99.90
19483;DHT22;9882;51.166;6.992;2023-07-30T10:47:19;19.50;99.90
19483;DHT22;9882;51.166;6.992;2023-07-30T10:50:01;19.50;99.90
19483;DHT22;9882;51.166;6.992;2023-07-30T10:52:30;19.30;99.90
19483;DHT22;9882;51.166;6.992;2023-07-30T10:55:02;19.20;99.90
19483;DHT22;9882;51.166;6.992;2023-07-30T10:57:30;19.20;99.90
19483;DHT22;9882;51.166;6.992;2023-07-30T11:00:00;19.20;99.90
19483;DHT22;9882;51.166;6.992;2023-07-30T11:02:29;19.30;99.90
19483;DHT22;9882;51.166;6.992;2023-07-30T11:05:11;19.50;99.90
19483;DHT22;9882;51.166;6.992;2023-07-30T11:07:52;19.80;99.90
19483;DHT22;9882;51.166;6.992;2023-07-30T11:10:23;20.10;99.90
19483;DHT22;9882;51.166;6.992;2023-07-30T11:12:52;20.40;99.90
19483;DHT22;9882;51.166;6.992;2023-07-30T11:15:21;20.40;99.90
19483;DHT22;9882;51.166;6.992;2023-07-30T11:17:51;20.10;99.90
19483;DHT22;9882;51.166;6.992;2023-07-30T11:20:23;19.80;99.90
19483;DHT22;9882;51.166;6.992;2023-07-30T11:22:54;19.90;99.90
19483;DHT22;9882;51.166;6.992;2023-07-30T11:25:24;20.00;99.90
19483;DHT22;9882;51.166;6.992;2023-07-30T11:27:56;20.00;99.90
19483;DHT22;9882;51.166;6.992;2023-07-30T11:30:25;20.10;99.90
19483;DHT22;9882;51.166;6.992;2023-07-30T11:33:16;20.20;99.90
19483;DHT22;9882;51.166;6.992;2023-07-30T11:35:45;19.90;99.90
19483;DHT22;9882;51.166;6.992;2023-07-30T11:38:14;20.00;99.90
19483;DHT22;9882;51.166;6.992;2023-07-30T11:40:43;20.10;99.90
19483;DHT22;9882;51.166;6.992;2023-07-30T11:43:12;20.50;99.90
19483;DHT22;9882;51.166;6.992;2023-07-30T11:45:41;20.50;99.90
19483;DHT22;9882;51.166;6.992;2023-07-30T11:48:10;20.40;99.90
19483;DHT22;9882;51.166;6.992;2023-07-30T11:50:45;20.40;99.90
19483;DHT22;9882;51.166;6.992;2023-07-30T11:53:15;20.60;99.90
19483;DHT22;9882;51.166;6.992;2023-07-30T11:55:44;20.60;99.90
19483;DHT22;9882;51.166;6.992;2023-07-30T11:58:13;20.50;99.90
19483;DHT22;9882;51.166;6.992;2023-07-30T12:01:23;20.50;99.90
19483;DHT22;9882;51.166;6.992;2023-07-30T12:03:54;20.40;99.90
19483;DHT22;9882;51.166;6.992;2023-07-30T12:06:38;20.60;99.90
19483;DHT22;9882;51.166;6.992;2023-07-30T12:09:11;20.40;99.90
19483;DHT22;9882;51.166;6.992;2023-07-30T12:11:50;20.70;99.90
19483;DHT22;9882;51.166;6.992;2023-07-30T12:14:21;21.00;99.90
19483;DHT22;9882;51.166;6.992;2023-07-30T12:16:52;20.80;99.90
19483;DHT22;9882;51.166;6.992;2023-07-30T12:19:21;20.80;99.90
19483;DHT22;9882;51.166;6.992;2023-07-30T12:21:51;20.70;99.90
19483;DHT22;9882;51.166;6.992;2023-07-30T12:24:19;20.80;99.90
19483;DHT22;9882;51.166;6.992;2023-07-30T12:26:49;20.80;99.90
19483;DHT22;9882;51.166;6.992;2023-07-30T12:29:19;20.60;99.90
19483;DHT22;9882;51.166;6.992;2023-07-30T12:31:48;20.40;99.90
19483;DHT22;9882;51.166;6.992;2023-07-30T12:34:19;20.00;99.90
19483;DHT22;9882;51.166;6.992;2023-07-30T12:36:48;20.00;99.90
19483;DHT22;9882;51.166;6.992;2023-07-30T12:39:17;19.60;99.90
19483;DHT22;9882;51.166;6.992;2023-07-30T12:41:46;19.80;99.90
19483;DHT22;9882;51.166;6.992;2023-07-30T12:44:14;19.70;99.90
19483;DHT22;9882;51.166;6.992;2023-07-30T12:46:43;19.70;99.90
19483;DHT22;9882;51.166;6.992;2023-07-30T12:49:12;19.90;99.90
19483;DHT22;9882;51.166;6.992;2023-07-30T12:51:40;20.30;99.90
19483;DHT22;9882;51.166;6.992;2023-07-30T12:54:09;20.50;99.90
19483;DHT22;9882;51.166;6.992;2023-07-30T12:56:39;20.70;99.90
19483;DHT22;9882;51.166;6.992;2023-07-30T12:59:07;20.60;99.90
19483;DHT22;9882;51.166;6.992;2023-07-30T13:01:36;20.60;99.90
19483;DHT22;9882;51.166;6.992;2023-07-30T13:04:04;20.70;99.90
19483;DHT22;9882;51.166;6.992;2023-07-30T13:06:33;20.60;99.90
19483;DHT22;9882;51.166;6.992;2023-07-30T13:09:01;20.70;99.90
19483;DHT22;9882;51.166;6.992;2023-07-30T13:11:30;20.50;99.90
19483;DHT22;9882;51.166;6.992;2023-07-30T13:14:00;20.50;99.90
19483;DHT22;9882;51.166;6.992;2023-07-30T13:16:30;20.90;99.90
19483;DHT22;9882;51.166;6.992;2023-07-30T13:18:59;20.90;99.90
19483;DHT22;9882;51.166;6.992;2023-07-30T13:21:28;21.00;99.90
19483;DHT22;9882;51.166;6.992;2023-07-30T13:23:56;21.00;99.90
19483;DHT22;9882;51.166;6.992;2023-07-30T13:26:25;20.90;99.90
19483;DHT22;9882;51.166;6.992;2023-07-30T13:28:53;21.20;99.90
19483;DHT22;9882;51.166;6.992;2023-07-30T13:31:23;21.50;99.90
19483;DHT22;9882;51.166;6.992;2023-07-30T13:33:52;21.80;99.90
19483;DHT22;9882;51.166;6.992;2023-07-30T13:36:20;21.90;99.90
19483;DHT22;9882;51.166;6.992;2023-07-30T13:38:49;22.60;99.90
19483;DHT22;9882;51.166;6.992;2023-07-30T13:41:18;22.60;99.90
19483;DHT22;9882;51.166;6.992;2023-07-30T13:43:46;22.20;99.90
19483;DHT22;9882;51.166;6.992;2023-07-30T13:46:15;22.40;99.90
19483;DHT22;9882;51.166;6.992;2023-07-30T13:48:45;22.10;99.90
19483;DHT22;9882;51.166;6.992;2023-07-30T13:51:13;22.70;99.90
19483;DHT22;9882;51.166;6.992;2023-07-30T13:53:42;22.90;99.90
19483;DHT22;9882;51.166;6.992;2023-07-30T13:56:10;23.00;99.90
19483;DHT22;9882;51.166;6.992;2023-07-30T13:58:39;22.70;99.90
19483;DHT22;9882;51.166;6.992;2023-07-30T14:01:07;21.80;99.90
19483;DHT22;9882;51.166;6.992;2023-07-30T14:03:36;21.30;99.90
19483;DHT22;9882;51.166;6.992;2023-07-30T14:06:06;22.50;99.90
19483;DHT22;9882;51.166;6.992;2023-07-30T14:08:35;22.50;99.90
19483;DHT22;9882;51.166;6.992;2023-07-30T14:11:03;22.20;99.90
19483;DHT22;9882;51.166;6.992;2023-07-30T14:13:32;22.40;99.90
19483;DHT22;9882;51.166;6.992;2023-07-30T14:16:00;22.20;99.90
19483;DHT22;9882;51.166;6.992;2023-07-30T14:18:29;21.90;99.90
19483;DHT22;9882;51.166;6.992;2023-07-30T14:20:58;22.50;99.90
19483;DHT22;9882;51.166;6.992;2023-07-30T14:23:28;23.00;99.90
19483;DHT22;9882;51.166;6.992;2023-07-30T14:25:56;23.80;99.90
19483;DHT22;9882;51.166;6.992;2023-07-30T14:28:25;23.60;99.90
19483;DHT22;9882;51.166;6.992;2023-07-30T14:30:54;23.30;99.90
19483;DHT22;9882;51.166;6.992;2023-07-30T14:33:22;22.70;99.90
19483;DHT22;9882;51.166;6.992;2023-07-30T14:35:51;23.20;99.90
19483;DHT22;9882;51.166;6.992;2023-07-30T14:38:20;22.80;99.90
19483;DHT22;9882;51.166;6.992;2023-07-30T14:40:50;22.90;99.90
19483;DHT22;9882;51.166;6.992;2023-07-30T14:43:18;22.80;99.90
19483;DHT22;9882;51.166;6.992;2023-07-30T14:45:48;23.50;99.90
19483;DHT22;9882;51.166;6.992;2023-07-30T14:48:18;23.60;99.90
19483;DHT22;9882;51.166;6.992;2023-07-30T14:50:46;23.90;99.90
19483;DHT22;9882;51.166;6.992;2023-07-30T14:53:15;23.20;99.90
19483;DHT22;9882;51.166;6.992;2023-07-30T14:55:43;24.10;99.90
19483;DHT22;9882;51.166;6.992;2023-07-30T14:58:13;23.70;99.90
19483;DHT22;9882;51.166;6.992;2023-07-30T15:00:41;24.20;99.90
19483;DHT22;9882;51.166;6.992;2023-07-30T15:03:10;23.90;99.90
19483;DHT22;9882;51.166;6.992;2023-07-30T15:05:40;23.40;99.90
19483;DHT22;9882;51.166;6.992;2023-07-30T15:08:09;23.00;99.90
19483;DHT22;9882;51.166;6.992;2023-07-30T15:10:37;23.00;99.90
19483;DHT22;9882;51.166;6.992;2023-07-30T15:13:06;23.00;99.90
19483;DHT22;9882;51.166;6.992;2023-07-30T15:15:37;22.70;99.90
19483;DHT22;9882;51.166;6.992;2023-07-30T15:18:09;22.50;99.90
19483;DHT22;9882;51.166;6.992;2023-07-30T15:20:37;22.70;99.90
19483;DHT22;9882;51.166;6.992;2023-07-30T15:23:06;22.90;99.90
19483;DHT22;9882;51.166;6.992;2023-07-30T15:25:36;23.10;99.90
19483;DHT22;9882;51.166;6.992;2023-07-30T15:28:05;22.50;99.90
19483;DHT22;9882;51.166;6.992;2023-07-30T15:30:36;22.70;99.90
19483;DHT22;9882;51.166;6.992;2023-07-30T15:33:08;22.30;99.90
19483;DHT22;9882;51.166;6.992;2023-07-30T15:35:37;22.50;99.90
19483;DHT22;9882;51.166;6.992;2023-07-30T15:38:06;22.20;99.90
19483;DHT22;9882;51.166;6.992;2023-07-30T15:40:34;22.50;99.90
19483;DHT22;9882;51.166;6.992;2023-07-30T15:43:04;22.70;99.90
19483;DHT22;9882;51.166;6.992;2023-07-30T15:45:32;23.60;99.90
19483;DHT22;9882;51.166;6.992;2023-07-30T15:48:04;23.80;99.90
19483;DHT22;9882;51.166;6.992;2023-07-30T15:50:33;24.80;99.90
19483;DHT22;9882;51.166;6.992;2023-07-30T15:53:01;24.80;99.90
19483;DHT22;9882;51.166;6.992;2023-07-30T15:55:32;24.90;99.90
19483;DHT22;9882;51.166;6.992;2023-07-30T15:58:00;24.90;99.90
19483;DHT22;9882;51.166;6.992;2023-07-30T16:00:29;24.20;99.90
19483;DHT22;9882;51.166;6.992;2023-07-30T16:02:57;23.40;99.90
19483;DHT22;9882;51.166;6.992;2023-07-30T16:05:29;23.50;99.90
19483;DHT22;9882;51.166;6.992;2023-07-30T16:07:57;23.60;99.90
19483;DHT22;9882;51.166;6.992;2023-07-30T16:10:26;23.60;99.90
19483;DHT22;9882;51.166;6.992;2023-07-30T16:12:54;24.00;99.90